KSBN/SBN METAR and TAF weather

Enter ICAO airport designator
Station Type Date Time Source
KSBN METAR 2022/12/04 10:54 UTC NOAA

KSBN 041054Z 20007KT 10SM CLR M08/M13 A3029 RMK AO2 SLP271 T10781128


Station Type Date Time Source
KSBN Decoded METAR 2022/12/04 10:54 UTC NOAA

SOUTH BEND REGIONAL AIRPORT, IN, United States (KSBN) 41-42N 086-19W 237M
Dec 04, 2022 - 05:54 AM EST / 2022.12.04 1054 UTC
Wind: from the SSW (200 degrees) at 8 MPH (7 KT):0
Visibility: 10 mile(s):0
Sky conditions: clear
Temperature: 18.0 F (-7.8 C)
Windchill: 8 F (-13 C):1
Dew Point: 9.0 F (-12.8 C)
Relative Humidity: 67%
Pressure (altimeter): 30.29 in. Hg (1025 hPa)
ob: KSBN 041054Z 20007KT 10SM CLR M08/M13 A3029 RMK AO2 SLP271 T10781128
cycle: 11

Station Type Date Time Source
KSBN TAF 2022/12/04 12:22 UTC NOAA

TAF KSBN 041120Z 0412/0512 26005KT P6SM SKC
FM041600 22008G15KT P6SM FEW250

Example: see airport list